createdAt,value
2018-09-27T00:00:58.718Z,13.49
2018-09-27T00:01:58.695Z,13.49
2018-09-27T00:02:58.716Z,13.51
2018-09-27T00:03:58.762Z,13.41
2018-09-27T00:04:58.766Z,13.49
2018-09-27T00:05:58.761Z,13.42
2018-09-27T00:06:58.759Z,13.42
2018-09-27T00:07:58.737Z,13.39
2018-09-27T00:08:58.726Z,13.41
2018-09-27T00:09:58.714Z,13.33
2018-09-27T00:10:58.864Z,13.38
2018-09-27T00:11:58.730Z,13.28
2018-09-27T00:12:58.746Z,13.29
2018-09-27T00:13:58.762Z,13.29
2018-09-27T00:14:58.744Z,13.28
2018-09-27T00:15:58.731Z,13.22
2018-09-27T00:16:58.714Z,13.15
2018-09-27T00:17:58.747Z,13.12
2018-09-27T00:18:58.743Z,13.20
2018-09-27T00:19:58.739Z,13.12
2018-09-27T00:20:58.728Z,13.19
2018-09-27T00:21:58.736Z,13.08
2018-09-27T00:22:58.736Z,13.19
2018-09-27T00:23:58.722Z,13.08
2018-09-27T00:24:58.726Z,13.07
2018-09-27T00:25:58.712Z,13.03
2018-09-27T00:26:58.735Z,13.03
2018-09-27T00:27:58.758Z,13.07
2018-09-27T00:28:58.761Z,13.11
2018-09-27T00:29:58.762Z,13.07
2018-09-27T00:30:58.750Z,13.12
2018-09-27T00:31:58.761Z,13.08
2018-09-27T00:32:58.761Z,13.03
2018-09-27T00:33:58.757Z,13.04
2018-09-27T00:34:58.746Z,13.08
2018-09-27T00:35:58.736Z,13.01
2018-09-27T00:36:58.732Z,13.04
2018-09-27T00:37:58.738Z,13.07
2018-09-27T00:38:58.775Z,13.10
2018-09-27T00:39:58.833Z,13.04
2018-09-27T00:40:58.821Z,13.03
2018-09-27T00:41:58.736Z,13.01
2018-09-27T00:42:58.778Z,13.05
2018-09-27T00:43:58.768Z,13.01
2018-09-27T00:44:58.812Z,13.10
2018-09-27T00:45:58.856Z,13.00
2018-09-27T00:46:58.838Z,12.97
2018-09-27T00:47:58.770Z,12.96
2018-09-27T00:48:58.886Z,12.90
2018-09-27T00:49:58.776Z,13.00
2018-09-27T00:50:58.765Z,12.92
2018-09-27T00:51:58.792Z,12.75
2018-09-27T00:52:58.787Z,12.85
2018-09-27T00:53:58.779Z,12.82
2018-09-27T00:54:58.766Z,12.79
2018-09-27T00:55:58.862Z,12.87
2018-09-27T00:56:58.865Z,12.78
2018-09-27T00:57:58.781Z,12.77
2018-09-27T00:58:58.796Z,12.86
2018-09-27T00:59:58.857Z,12.87
2018-09-27T01:00:58.853Z,12.78
2018-09-27T01:01:58.799Z,12.75
2018-09-27T01:02:58.808Z,12.83
2018-09-27T01:03:58.813Z,12.74
2018-09-27T01:04:58.846Z,12.75
2018-09-27T01:05:58.812Z,12.77
2018-09-27T01:06:58.789Z,12.71
2018-09-27T01:07:58.835Z,12.67
2018-09-27T01:08:58.819Z,12.78
2018-09-27T01:09:58.825Z,12.71
2018-09-27T01:10:58.830Z,12.79
2018-09-27T01:11:58.850Z,12.57
2018-09-27T01:12:58.809Z,12.57
2018-09-27T01:13:58.793Z,12.62
2018-09-27T01:14:58.802Z,12.60
2018-09-27T01:15:58.810Z,12.57
2018-09-27T01:16:58.800Z,12.54
2018-09-27T01:17:58.839Z,12.57
2018-09-27T01:18:58.835Z,12.54
2018-09-27T01:19:58.798Z,12.64
2018-09-27T01:20:58.822Z,12.53
2018-09-27T01:21:58.888Z,12.59
2018-09-27T01:22:58.838Z,12.54
2018-09-27T01:23:58.817Z,12.53
2018-09-27T01:24:58.828Z,12.56
2018-09-27T01:25:58.827Z,12.47
2018-09-27T01:26:58.817Z,12.37
2018-09-27T01:27:58.905Z,12.39
2018-09-27T01:28:58.837Z,12.32
2018-09-27T01:29:58.828Z,12.31
2018-09-27T01:30:58.861Z,12.35
2018-09-27T01:31:58.818Z,12.35
2018-09-27T01:32:58.838Z,12.38
2018-09-27T01:33:58.858Z,12.29
2018-09-27T01:34:58.844Z,12.31
2018-09-27T01:35:58.867Z,12.34
2018-09-27T01:36:58.853Z,12.37
2018-09-27T01:37:58.848Z,12.38
2018-09-27T01:38:58.820Z,12.37
2018-09-27T01:39:58.834Z,12.35
2018-09-27T01:40:58.869Z,12.35
2018-09-27T01:41:58.846Z,12.38
2018-09-27T01:42:58.861Z,12.39
2018-09-27T01:43:58.860Z,12.37
2018-09-27T01:44:58.865Z,12.39
2018-09-27T01:45:58.850Z,12.39
2018-09-27T01:46:58.876Z,12.42
2018-09-27T01:47:58.878Z,12.38
2018-09-27T01:48:58.828Z,12.38
2018-09-27T01:49:58.830Z,12.32
2018-09-27T01:50:58.856Z,12.27
2018-09-27T01:51:58.833Z,12.24
2018-09-27T01:52:58.856Z,12.34
2018-09-27T01:53:58.846Z,12.35
2018-09-27T01:54:58.904Z,12.35
2018-09-27T01:55:58.868Z,12.34
2018-09-27T01:56:58.897Z,12.37
2018-09-27T01:57:58.911Z,12.41
2018-09-27T01:58:58.861Z,12.47
2018-09-27T01:59:58.866Z,12.38
2018-09-27T02:00:58.839Z,12.52
2018-09-27T02:01:58.880Z,12.42
2018-09-27T02:02:58.872Z,12.52
2018-09-27T02:03:58.866Z,12.53
2018-09-27T02:04:58.867Z,12.57
2018-09-27T02:05:58.864Z,12.47
2018-09-27T02:06:58.849Z,12.56
2018-09-27T02:07:58.863Z,12.65
2018-09-27T02:08:58.857Z,12.47
2018-09-27T02:10:00.550Z,12.41
2018-09-27T02:10:58.856Z,12.52
2018-09-27T02:11:58.904Z,12.53
2018-09-27T02:12:58.867Z,12.45
2018-09-27T02:13:58.882Z,12.56
2018-09-27T02:14:58.877Z,12.52
2018-09-27T02:15:59.029Z,12.54
2018-09-27T02:16:58.889Z,12.53
2018-09-27T02:17:58.889Z,12.56
2018-09-27T02:18:58.867Z,12.52
2018-09-27T02:19:58.918Z,12.47
2018-09-27T02:20:58.862Z,12.53
2018-09-27T02:21:58.931Z,12.47
2018-09-27T02:22:58.921Z,12.42
2018-09-27T02:23:58.946Z,12.46
2018-09-27T02:24:58.925Z,12.39
2018-09-27T02:25:58.913Z,12.46
2018-09-27T02:26:58.901Z,12.49
2018-09-27T02:27:58.866Z,12.52
2018-09-27T02:28:58.881Z,12.50
2018-09-27T02:29:58.961Z,12.53
2018-09-27T02:30:58.962Z,12.53
2018-09-27T02:31:58.956Z,12.41
2018-09-27T02:32:58.877Z,12.46
2018-09-27T02:33:58.959Z,12.41
2018-09-27T02:34:58.949Z,12.46
2018-09-27T02:35:58.947Z,12.42
2018-09-27T02:36:58.957Z,12.35
2018-09-27T02:37:59.038Z,12.42
2018-09-27T02:38:58.923Z,12.47
2018-09-27T02:39:58.917Z,12.38
2018-09-27T02:40:58.962Z,12.35
2018-09-27T02:41:58.945Z,12.50
2018-09-27T02:42:58.941Z,12.52
2018-09-27T02:43:58.939Z,12.52
2018-09-27T02:44:58.955Z,12.60
2018-09-27T02:45:58.970Z,12.56
2018-09-27T02:46:58.964Z,12.68
2018-09-27T02:47:58.967Z,12.77
2018-09-27T02:48:58.976Z,12.62
2018-09-27T02:49:58.965Z,12.67
2018-09-27T02:50:58.947Z,12.65
2018-09-27T02:51:58.946Z,12.62
2018-09-27T02:52:58.951Z,12.74
2018-09-27T02:53:58.928Z,12.62
2018-09-27T02:54:58.924Z,12.79
2018-09-27T02:55:58.962Z,12.71
2018-09-27T02:56:58.950Z,12.75
2018-09-27T02:57:58.979Z,12.67
2018-09-27T02:58:58.979Z,12.74
2018-09-27T02:59:58.919Z,12.87
2018-09-27T03:00:58.918Z,12.79
2018-09-27T03:01:58.939Z,12.92
2018-09-27T03:02:58.961Z,12.90
2018-09-27T03:03:58.967Z,12.87
2018-09-27T03:04:58.982Z,12.95
2018-09-27T03:05:58.913Z,13.01
2018-09-27T03:06:58.938Z,13.03
2018-09-27T03:07:58.943Z,13.01
2018-09-27T03:08:58.933Z,13.11
2018-09-27T03:09:58.974Z,13.01
2018-09-27T03:10:58.933Z,13.00
2018-09-27T03:11:58.932Z,13.07
2018-09-27T03:12:58.950Z,13.14
2018-09-27T03:13:59.040Z,13.20
2018-09-27T03:14:58.933Z,13.17
2018-09-27T03:15:58.959Z,13.15
2018-09-27T03:16:58.923Z,13.12
2018-09-27T03:17:58.978Z,13.15
2018-09-27T03:18:58.960Z,13.23
2018-09-27T03:19:58.948Z,13.19
2018-09-27T03:20:58.962Z,13.29
2018-09-27T03:21:58.950Z,13.26
2018-09-27T03:22:58.949Z,13.32
2018-09-27T03:23:58.957Z,13.36
2018-09-27T03:24:58.936Z,13.36
2018-09-27T03:25:59.019Z,13.36
2018-09-27T03:26:58.992Z,13.51
2018-09-27T03:27:58.942Z,13.49
2018-09-27T03:28:58.946Z,13.51
2018-09-27T03:29:58.966Z,13.49
2018-09-27T03:30:58.978Z,13.45
2018-09-27T03:31:59.024Z,13.51
2018-09-27T03:32:58.957Z,13.49
2018-09-27T03:33:58.977Z,13.41
2018-09-27T03:34:58.987Z,13.46
2018-09-27T03:35:58.992Z,13.45
2018-09-27T03:36:58.987Z,13.51
2018-09-27T03:37:58.976Z,13.48
2018-09-27T03:38:58.970Z,13.52
2018-09-27T03:39:58.983Z,13.60
2018-09-27T03:40:58.991Z,13.49
2018-09-27T03:41:59.006Z,13.62
2018-09-27T03:42:58.964Z,13.54
2018-09-27T03:43:59.000Z,13.57
2018-09-27T03:44:59.017Z,13.63
2018-09-27T03:45:58.981Z,13.54
2018-09-27T03:46:59.000Z,13.69
2018-09-27T03:47:58.998Z,13.64
2018-09-27T03:48:58.999Z,13.71
2018-09-27T03:49:59.022Z,13.69
2018-09-27T03:50:59.010Z,13.64
2018-09-27T03:51:59.015Z,13.64
2018-09-27T03:52:59.045Z,13.59
2018-09-27T03:53:59.000Z,13.64
2018-09-27T03:54:58.980Z,13.71
2018-09-27T03:55:59.024Z,13.81
2018-09-27T03:56:59.009Z,13.73
2018-09-27T03:57:59.027Z,13.75
2018-09-27T03:58:59.027Z,13.79
2018-09-27T03:59:59.016Z,13.81
2018-09-27T04:00:58.988Z,13.75
2018-09-27T04:01:59.012Z,13.71
2018-09-27T04:02:59.012Z,13.79
2018-09-27T04:03:59.018Z,13.81
2018-09-27T04:04:59.000Z,13.81
2018-09-27T04:05:58.994Z,13.87
2018-09-27T04:06:59.029Z,13.88
2018-09-27T04:07:59.020Z,13.81
2018-09-27T04:08:59.039Z,13.81
2018-09-27T04:09:59.026Z,13.88
2018-09-27T04:10:59.007Z,13.87
2018-09-27T04:11:59.049Z,13.84
2018-09-27T04:12:58.986Z,13.79
2018-09-27T04:13:59.012Z,13.82
2018-09-27T04:14:59.020Z,13.78
2018-09-27T04:15:59.054Z,13.88
2018-09-27T04:16:59.017Z,13.85
2018-09-27T04:17:59.012Z,13.89
2018-09-27T04:18:59.072Z,13.91
2018-09-27T04:19:59.070Z,13.95
2018-09-27T04:20:59.036Z,14.03
2018-09-27T04:21:59.061Z,14.04
2018-09-27T04:22:59.045Z,13.88
2018-09-27T04:23:59.996Z,14.03
2018-09-27T04:24:59.034Z,14.02
2018-09-27T04:25:59.067Z,13.92
2018-09-27T04:26:59.054Z,14.06
2018-09-27T04:27:59.050Z,14.02
2018-09-27T04:28:59.028Z,14.06
2018-09-27T04:29:59.064Z,14.10
2018-09-27T04:30:59.024Z,14.04
2018-09-27T04:31:59.043Z,14.17
2018-09-27T04:32:59.027Z,14.12
2018-09-27T04:33:59.053Z,14.14
2018-09-27T04:34:59.031Z,14.14
2018-09-27T04:35:59.026Z,14.20
2018-09-27T04:36:59.084Z,14.17
2018-09-27T04:37:59.043Z,14.18
2018-09-27T04:38:59.077Z,14.14
2018-09-27T04:39:59.080Z,14.17
2018-09-27T04:40:59.092Z,14.09
2018-09-27T04:41:59.032Z,14.14
2018-09-27T04:42:59.066Z,14.14
2018-09-27T04:43:59.067Z,14.15
2018-09-27T04:44:59.085Z,14.15
2018-09-27T04:45:59.052Z,14.10
2018-09-27T04:46:59.119Z,14.20
2018-09-27T04:47:59.067Z,14.17
2018-09-27T04:48:59.062Z,14.18
2018-09-27T04:49:59.066Z,14.22
2018-09-27T04:50:59.085Z,14.17
2018-09-27T04:51:59.071Z,14.25
2018-09-27T04:52:59.053Z,14.20
2018-09-27T04:53:59.096Z,14.21
2018-09-27T04:54:59.095Z,14.32
2018-09-27T04:55:59.077Z,14.20
2018-09-27T04:56:59.168Z,14.32
2018-09-27T04:57:59.074Z,14.24
2018-09-27T04:58:59.083Z,14.21
2018-09-27T04:59:59.098Z,14.25
2018-09-27T05:00:59.115Z,14.22
2018-09-27T05:01:59.104Z,14.32
2018-09-27T05:02:59.103Z,14.25
2018-09-27T05:03:59.080Z,14.29
2018-09-27T05:04:59.120Z,14.28
2018-09-27T05:05:59.119Z,14.29
2018-09-27T05:06:59.092Z,14.27
2018-09-27T05:07:59.138Z,14.24
2018-09-27T05:08:59.110Z,14.35
2018-09-27T05:09:59.092Z,14.27
2018-09-27T05:10:59.078Z,14.29
2018-09-27T05:11:59.121Z,14.35
2018-09-27T05:12:59.106Z,14.33
2018-09-27T05:13:59.101Z,14.37
2018-09-27T05:14:59.142Z,14.24
2018-09-27T05:15:59.172Z,14.33
2018-09-27T05:16:59.121Z,14.36
2018-09-27T05:17:59.133Z,14.36
2018-09-27T05:18:59.123Z,14.32
2018-09-27T05:19:59.102Z,14.28
2018-09-27T05:20:59.138Z,14.29
2018-09-27T05:21:59.132Z,14.28
2018-09-27T05:22:59.120Z,14.36
2018-09-27T05:23:59.133Z,14.27
2018-09-27T05:24:59.144Z,14.32
2018-09-27T05:25:59.174Z,14.35
2018-09-27T05:26:59.126Z,14.29
2018-09-27T05:27:59.121Z,14.37
2018-09-27T05:28:59.156Z,14.42
2018-09-27T05:29:59.105Z,14.28
2018-09-27T05:30:59.124Z,14.27
2018-09-27T05:31:59.132Z,14.32
2018-09-27T05:32:59.198Z,14.37
2018-09-27T05:33:59.205Z,14.32
2018-09-27T05:34:59.132Z,14.37
2018-09-27T05:35:59.108Z,14.33
2018-09-27T05:36:59.132Z,14.32
2018-09-27T05:37:59.115Z,14.33
2018-09-27T05:38:59.162Z,14.35
2018-09-27T05:39:59.158Z,14.29
2018-09-27T05:40:59.187Z,14.37
2018-09-27T05:41:59.158Z,14.28
2018-09-27T05:42:59.179Z,14.37
2018-09-27T05:43:59.149Z,14.29
2018-09-27T05:44:59.127Z,14.43
2018-09-27T05:45:59.178Z,14.36
2018-09-27T05:46:59.137Z,14.25
2018-09-27T05:47:59.147Z,14.27
2018-09-27T05:48:59.156Z,14.33
2018-09-27T05:49:59.257Z,14.32
2018-09-27T05:50:59.172Z,14.33
2018-09-27T05:51:59.218Z,14.36
2018-09-27T05:52:59.145Z,14.35
2018-09-27T05:53:59.225Z,14.32
2018-09-27T05:54:59.163Z,14.37
2018-09-27T05:55:59.212Z,14.42
2018-09-27T05:56:59.182Z,14.42
2018-09-27T05:57:59.172Z,14.36
2018-09-27T05:58:59.197Z,14.36
2018-09-27T05:59:59.238Z,14.43
2018-09-27T06:00:59.183Z,14.46
2018-09-27T06:01:59.289Z,14.55
2018-09-27T06:02:59.205Z,14.47
2018-09-27T06:03:59.153Z,14.52
2018-09-27T06:04:59.174Z,14.47
2018-09-27T06:05:59.173Z,14.45
2018-09-27T06:06:59.155Z,14.47
2018-09-27T06:07:59.161Z,14.50
2018-09-27T06:08:59.194Z,14.54
2018-09-27T06:09:59.173Z,14.57
2018-09-27T06:10:59.168Z,14.47
2018-09-27T06:11:59.179Z,14.54
2018-09-27T06:12:59.178Z,14.55
2018-09-27T06:13:59.172Z,14.54
2018-09-27T06:14:59.212Z,14.61
2018-09-27T06:15:59.224Z,14.58
2018-09-27T06:16:59.194Z,14.45
2018-09-27T06:17:59.254Z,14.54
2018-09-27T06:18:59.213Z,14.43
2018-09-27T06:19:59.244Z,14.62
2018-09-27T06:20:59.225Z,14.61
2018-09-27T06:21:59.174Z,14.64
2018-09-27T06:22:59.203Z,14.65
2018-09-27T06:23:59.226Z,14.64
2018-09-27T06:24:59.186Z,14.70
2018-09-27T06:25:59.250Z,14.72
2018-09-27T06:26:59.191Z,14.70
2018-09-27T06:27:59.273Z,14.78
2018-09-27T06:28:59.225Z,14.80
2018-09-27T06:29:59.212Z,14.86
2018-09-27T06:30:59.201Z,14.92
2018-09-27T06:31:59.220Z,14.89
2018-09-27T06:32:59.241Z,14.92
2018-09-27T06:33:59.327Z,14.92
2018-09-27T06:34:59.274Z,15.02
2018-09-27T06:35:59.963Z,15.03
2018-09-27T06:36:59.229Z,15.14
2018-09-27T06:37:59.286Z,15.17
2018-09-27T06:38:59.220Z,15.20
2018-09-27T06:39:59.264Z,15.23
2018-09-27T06:40:59.248Z,15.27
2018-09-27T06:41:59.220Z,15.36
2018-09-27T06:42:59.201Z,15.49
2018-09-27T06:43:59.285Z,15.57
2018-09-27T06:44:59.244Z,15.67
2018-09-27T06:46:01.094Z,15.74
2018-09-27T06:46:59.322Z,15.69
2018-09-27T06:47:59.274Z,15.80
2018-09-27T06:48:59.265Z,15.82
2018-09-27T06:49:59.266Z,15.75
2018-09-27T06:50:59.241Z,15.82
2018-09-27T06:51:59.264Z,15.67
2018-09-27T06:52:59.271Z,15.80
2018-09-27T06:53:59.266Z,15.75
2018-09-27T06:54:59.309Z,15.78
2018-09-27T06:55:59.301Z,15.71
2018-09-27T06:56:59.253Z,15.82
2018-09-27T06:57:59.268Z,15.82
2018-09-27T06:58:59.243Z,15.87
2018-09-27T06:59:59.271Z,15.93
2018-09-27T07:00:59.322Z,16.75
2018-09-27T07:01:59.347Z,17.96
2018-09-27T07:02:59.255Z,18.66
2018-09-27T07:03:59.274Z,18.98
2018-09-27T07:04:59.405Z,19.37
2018-09-27T07:05:59.314Z,20.43
2018-09-27T07:06:59.304Z,21.27
2018-09-27T07:07:59.306Z,21.74
2018-09-27T07:08:59.309Z,21.75
2018-09-27T07:09:59.372Z,22.27
2018-09-27T07:10:59.282Z,22.00
2018-09-27T07:11:59.371Z,22.39
2018-09-27T07:12:59.305Z,22.61
2018-09-27T07:13:59.274Z,23.00
2018-09-27T07:14:59.276Z,22.73
2018-09-27T07:15:59.555Z,22.77
2018-09-27T07:16:59.274Z,23.50
2018-09-27T07:17:59.293Z,23.28
2018-09-27T07:18:59.289Z,23.68
2018-09-27T07:19:59.274Z,23.65
2018-09-27T07:20:59.305Z,23.61
2018-09-27T07:21:59.372Z,22.68
2018-09-27T07:23:00.260Z,23.39
2018-09-27T07:23:59.308Z,23.47
2018-09-27T07:24:59.429Z,23.50
2018-09-27T07:26:01.653Z,23.23
2018-09-27T07:26:59.542Z,23.53
2018-09-27T07:27:59.328Z,23.69
2018-09-27T07:28:59.368Z,24.16
2018-09-27T07:29:59.360Z,23.88
2018-09-27T07:30:59.427Z,23.97
2018-09-27T07:31:59.324Z,23.88
2018-09-27T07:32:59.400Z,23.91
2018-09-27T07:33:59.402Z,23.78
2018-09-27T07:34:59.513Z,23.68
2018-09-27T07:35:59.394Z,24.09
2018-09-27T07:36:59.742Z,23.94
2018-09-27T07:37:59.400Z,23.83
2018-09-27T07:39:07.079Z,23.79
2018-09-27T07:40:00.459Z,23.93
2018-09-27T07:40:59.416Z,24.34
2018-09-27T07:43:07.951Z,24.00
2018-09-27T07:43:59.485Z,23.88
2018-09-27T07:44:59.385Z,24.40
2018-09-27T07:45:59.448Z,24.45
2018-09-27T07:46:59.393Z,24.08
2018-09-27T07:47:59.439Z,24.16
2018-09-27T07:48:59.475Z,23.95
2018-09-27T07:49:59.550Z,24.35
2018-09-27T07:50:59.519Z,24.45
2018-09-27T07:51:59.480Z,24.68
2018-09-27T07:52:59.485Z,24.98
2018-09-27T07:53:59.515Z,24.64
2018-09-27T07:54:59.566Z,24.52
2018-09-27T07:55:59.451Z,24.95
2018-09-27T07:56:59.464Z,24.99
2018-09-27T07:57:59.461Z,25.25
2018-09-27T07:58:59.643Z,25.15
2018-09-27T08:02:00.889Z,25.46
2018-09-27T08:03:00.256Z,25.45
2018-09-27T08:03:59.526Z,25.43
2018-09-27T08:04:59.767Z,25.03
2018-09-27T08:05:59.650Z,25.30
2018-09-27T08:06:59.537Z,25.83
2018-09-27T08:07:59.584Z,25.90
2018-09-27T08:08:59.600Z,25.90
2018-09-27T08:09:59.567Z,25.97
2018-09-27T08:10:59.585Z,25.32
2018-09-27T08:11:59.780Z,25.80
2018-09-27T08:12:59.672Z,25.98
2018-09-27T08:13:59.659Z,26.09
2018-09-27T08:14:59.646Z,25.83
2018-09-27T08:15:59.690Z,25.95
2018-09-27T08:16:59.655Z,24.96
2018-09-27T08:17:59.660Z,24.45
2018-09-27T08:19:01.380Z,24.85
2018-09-27T08:19:59.717Z,24.78
2018-09-27T08:20:59.708Z,25.10
2018-09-27T08:21:59.714Z,25.75
2018-09-27T08:23:00.271Z,26.39
2018-09-27T08:23:59.775Z,25.87
2018-09-27T08:24:59.989Z,25.70
2018-09-27T08:25:59.769Z,25.61
2018-09-27T08:27:00.297Z,25.24
2018-09-27T08:27:59.755Z,25.85
2018-09-27T08:28:59.747Z,25.87
2018-09-27T08:29:59.766Z,26.07
2018-09-27T08:31:00.042Z,26.84
2018-09-27T08:31:59.973Z,26.77
2018-09-27T08:33:00.617Z,26.44
2018-09-27T08:34:01.427Z,26.35
2018-09-27T08:35:09.036Z,26.77
2018-09-27T08:36:07.707Z,26.85
2018-09-27T08:37:59.891Z,27.55
2018-09-27T08:39:00.099Z,26.92
2018-09-27T08:39:59.865Z,25.83
2018-09-27T08:41:00.108Z,26.39
2018-09-27T08:41:59.895Z,26.87
2018-09-27T08:42:59.861Z,27.41
2018-09-27T08:44:00.503Z,27.04
2018-09-27T08:45:00.165Z,26.63
2018-09-27T08:46:01.064Z,26.55
2018-09-27T08:47:00.484Z,27.51
2018-09-27T08:48:00.354Z,27.17
2018-09-27T08:48:59.980Z,26.70
2018-09-27T08:49:59.934Z,26.80
2018-09-27T08:51:00.095Z,26.88
2018-09-27T08:51:59.966Z,27.14
2018-09-27T08:52:59.994Z,27.49
2018-09-27T08:53:59.982Z,27.44
2018-09-27T08:55:00.030Z,26.84
2018-09-27T08:56:00.154Z,27.27
2018-09-27T08:57:00.286Z,26.89
2018-09-27T08:58:01.684Z,26.30
2018-09-27T08:59:00.535Z,26.18
2018-09-27T09:00:21.098Z,25.95
2018-09-27T09:02:00.757Z,26.88
2018-09-27T09:03:00.460Z,26.91
2018-09-27T09:04:00.517Z,27.18
2018-09-27T09:08:35.568Z,27.79
2018-09-27T09:10:35.842Z,26.50
2018-09-27T09:11:37.045Z,26.88
2018-09-27T09:14:38.445Z,27.62
2018-09-27T09:15:36.527Z,27.49
2018-09-27T09:16:35.899Z,27.40
2018-09-27T09:21:10.790Z,27.79
2018-09-27T09:23:08.319Z,27.43
2018-09-27T09:24:08.550Z,27.46
2018-09-27T09:25:08.202Z,27.47
2018-09-27T09:26:08.819Z,27.07
2018-09-27T09:27:09.194Z,27.40
2018-09-27T09:28:08.400Z,26.87
2018-09-27T09:29:08.488Z,26.48
2018-09-27T09:30:08.309Z,26.94
2018-09-27T09:31:08.508Z,27.24
2018-09-27T09:34:08.981Z,26.50
2018-09-27T09:35:08.598Z,26.75
2018-09-27T09:36:08.774Z,27.07
2018-09-27T09:37:08.381Z,27.37
2018-09-27T09:38:08.659Z,27.43
2018-09-27T09:39:08.397Z,27.78
2018-09-27T09:40:08.576Z,27.27
2018-09-27T09:41:08.769Z,27.60
2018-09-27T09:42:08.903Z,27.50
2018-09-27T09:43:09.333Z,27.94
2018-09-27T09:44:09.079Z,27.63
2018-09-27T09:45:09.563Z,27.34
2018-09-27T09:47:42.049Z,28.14
2018-09-27T09:49:41.833Z,27.97
2018-09-27T09:50:41.241Z,27.60
2018-09-27T09:51:41.669Z,27.44
2018-09-27T09:55:13.597Z,28.24
2018-09-27T09:56:13.675Z,27.96
2018-09-27T09:57:13.612Z,27.96
2018-09-27T09:59:14.441Z,27.25
2018-09-27T10:03:47.994Z,26.28
2018-09-27T10:04:46.035Z,26.58
2018-09-27T10:05:46.075Z,27.03
2018-09-27T10:06:46.074Z,27.74
2018-09-27T10:07:46.105Z,28.00
2018-09-27T10:08:46.165Z,28.15
2018-09-27T10:09:46.137Z,28.18
2018-09-27T10:10:46.136Z,27.96
2018-09-27T10:11:46.184Z,27.47
2018-09-27T10:12:46.177Z,27.90
2018-09-27T10:13:46.206Z,27.88
2018-09-27T10:14:46.220Z,27.59
2018-09-27T10:15:46.245Z,27.96
2018-09-27T10:16:46.246Z,28.14
2018-09-27T10:17:46.247Z,28.14
2018-09-27T10:18:46.259Z,27.81
2018-09-27T10:19:46.275Z,27.41
2018-09-27T10:20:46.276Z,27.74
2018-09-27T10:21:46.396Z,27.65
2018-09-27T10:22:46.331Z,27.27
2018-09-27T10:23:46.346Z,27.34
2018-09-27T10:24:46.356Z,27.65
2018-09-27T10:25:46.366Z,27.59
2018-09-27T10:26:46.379Z,27.74
2018-09-27T10:27:46.411Z,27.96
2018-09-27T10:28:46.418Z,28.04
2018-09-27T10:29:46.440Z,28.27
2018-09-27T10:30:46.458Z,27.74
2018-09-27T10:31:46.473Z,27.78
2018-09-27T10:32:46.462Z,27.81
2018-09-27T10:38:23.504Z,27.43
2018-09-27T10:39:23.395Z,27.09
2018-09-27T10:40:23.423Z,27.39
2018-09-27T10:41:23.447Z,27.59
2018-09-27T10:44:28.130Z,27.72
2018-09-27T10:45:28.633Z,28.46
2018-09-27T10:46:39.124Z,28.92
2018-09-27T10:47:27.614Z,29.31
2018-09-27T10:48:23.600Z,28.59
2018-09-27T10:49:23.567Z,28.93
2018-09-27T10:50:23.574Z,29.16
2018-09-27T10:51:23.652Z,28.92
2018-09-27T10:52:23.630Z,28.88
2018-09-27T10:53:23.655Z,28.31
2018-09-27T10:54:23.667Z,27.96
2018-09-27T10:55:23.672Z,28.25
2018-09-27T10:56:23.757Z,27.90
2018-09-27T10:57:23.690Z,27.93
2018-09-27T10:58:23.709Z,27.90
2018-09-27T10:59:23.735Z,28.52
2018-09-27T11:00:23.766Z,28.40
2018-09-27T11:01:23.771Z,27.93
2018-09-27T11:02:23.790Z,28.52
2018-09-27T11:03:23.797Z,28.73
2018-09-27T11:04:23.809Z,27.81
2018-09-27T11:05:23.831Z,27.57
2018-09-27T11:06:23.842Z,27.74
2018-09-27T11:07:23.856Z,28.00
2018-09-27T11:08:23.875Z,27.62
2018-09-27T11:09:23.892Z,27.75
2018-09-27T11:10:23.915Z,28.34
2018-09-27T11:11:23.952Z,28.90
2018-09-27T11:12:23.948Z,29.18
2018-09-27T11:13:23.976Z,29.58
2018-09-27T11:14:23.986Z,29.33
2018-09-27T11:15:24.019Z,29.19
2018-09-27T11:16:24.050Z,28.92
2018-09-27T11:17:24.062Z,28.43
2018-09-27T11:18:24.044Z,28.11
2018-09-27T11:19:24.136Z,27.90
2018-09-27T11:20:24.139Z,27.82
2018-09-27T11:21:24.093Z,27.78
2018-09-27T11:22:24.141Z,27.74
2018-09-27T11:23:24.136Z,28.04
2018-09-27T11:24:24.221Z,28.17
2018-09-27T11:25:24.618Z,27.62
2018-09-27T11:26:24.262Z,27.43
2018-09-27T11:27:24.248Z,27.37
2018-09-27T11:28:24.213Z,26.73
2018-09-27T11:29:24.215Z,26.05
2018-09-27T11:30:24.212Z,25.94
2018-09-27T11:31:24.227Z,25.92
2018-09-27T11:32:24.237Z,25.79
2018-09-27T11:33:24.269Z,25.42
2018-09-27T11:34:24.267Z,25.39
2018-09-27T11:35:24.303Z,25.03
2018-09-27T11:36:24.318Z,24.91
2018-09-27T11:37:24.321Z,24.76
2018-09-27T11:38:24.368Z,24.64
2018-09-27T11:39:24.310Z,24.55
2018-09-27T11:40:24.327Z,24.47
2018-09-27T11:41:24.346Z,24.49
2018-09-27T11:42:24.414Z,24.65
2018-09-27T11:43:24.421Z,24.64
2018-09-27T11:44:24.411Z,24.78
2018-09-27T11:45:24.382Z,24.85
2018-09-27T11:46:24.397Z,24.61
2018-09-27T11:47:24.401Z,24.55
2018-09-27T11:48:24.421Z,24.60
2018-09-27T11:49:24.475Z,24.60
2018-09-27T11:50:24.451Z,24.50
2018-09-27T11:51:25.731Z,24.57
2018-09-27T11:52:24.459Z,24.62
2018-09-27T11:53:24.444Z,24.62
2018-09-27T11:54:24.466Z,24.65
2018-09-27T11:55:24.463Z,24.64
2018-09-27T11:56:24.460Z,24.52
2018-09-27T11:57:24.497Z,24.58
2018-09-27T11:58:24.475Z,24.61
2018-09-27T11:59:24.498Z,24.84
2018-09-27T12:00:24.545Z,24.61
2018-09-27T12:01:24.525Z,24.71
2018-09-27T12:02:24.520Z,24.47
2018-09-27T12:03:24.538Z,24.68
2018-09-27T12:04:24.531Z,24.43
2018-09-27T12:05:24.533Z,24.32
2018-09-27T12:06:24.572Z,24.46
2018-09-27T12:07:24.561Z,24.37
2018-09-27T12:08:24.544Z,24.45
2018-09-27T12:09:24.565Z,24.65
2018-09-27T12:10:24.552Z,24.40
2018-09-27T12:11:24.575Z,24.24
2018-09-27T12:12:24.586Z,24.25
2018-09-27T12:13:24.617Z,24.53
2018-09-27T12:14:24.633Z,24.62
2018-09-27T12:15:24.579Z,24.62
2018-09-27T12:16:24.604Z,24.78
2018-09-27T12:17:24.686Z,24.76
2018-09-27T12:18:24.632Z,24.85
2018-09-27T12:19:24.612Z,24.87
2018-09-27T12:20:24.606Z,24.65
2018-09-27T12:21:24.629Z,24.71
2018-09-27T12:22:24.631Z,24.80
2018-09-27T12:23:24.634Z,24.62
2018-09-27T12:24:24.653Z,24.46
2018-09-27T12:25:24.784Z,24.64
2018-09-27T12:26:24.656Z,24.64
2018-09-27T12:27:24.666Z,24.61
2018-09-27T12:28:24.710Z,24.46
2018-09-27T12:29:24.761Z,24.58
2018-09-27T12:30:25.513Z,24.58
2018-09-27T12:31:24.755Z,24.55
2018-09-27T12:32:24.698Z,24.46
2018-09-27T12:33:24.712Z,24.25
2018-09-27T12:34:24.706Z,24.15
2018-09-27T12:35:24.726Z,24.27
2018-09-27T12:36:24.784Z,24.45
2018-09-27T12:37:24.714Z,24.49
2018-09-27T12:38:24.786Z,24.46
2018-09-27T12:39:25.156Z,24.39
2018-09-27T12:40:24.724Z,24.46
2018-09-27T12:41:24.735Z,24.25
2018-09-27T12:42:24.803Z,24.22
2018-09-27T12:43:24.751Z,24.30
2018-09-27T12:44:24.839Z,24.20
2018-09-27T12:45:24.808Z,24.13
2018-09-27T12:46:24.807Z,24.13
2018-09-27T12:48:59.928Z,23.83
2018-09-27T12:49:58.862Z,23.80
2018-09-27T12:52:30.822Z,23.97
2018-09-27T12:53:30.174Z,24.09
2018-09-27T12:54:32.248Z,24.05
2018-09-27T12:55:29.418Z,23.98
2018-09-27T12:56:29.365Z,24.02
2018-09-27T12:57:29.384Z,23.95
2018-09-27T12:58:29.427Z,23.94
2018-09-27T12:59:29.404Z,23.94
2018-09-27T13:00:30.166Z,23.94
2018-09-27T13:01:29.454Z,23.94
2018-09-27T13:02:29.498Z,23.94
2018-09-27T13:03:29.432Z,23.95
2018-09-27T13:04:29.575Z,23.75
2018-09-27T13:05:29.439Z,23.66
2018-09-27T13:06:29.446Z,23.58
2018-09-27T13:07:29.456Z,23.55
2018-09-27T13:08:29.488Z,23.63
2018-09-27T13:09:29.445Z,23.57
2018-09-27T13:10:29.433Z,23.55
2018-09-27T13:11:29.466Z,23.60
2018-09-27T13:12:29.567Z,23.57
2018-09-27T13:13:29.679Z,23.57
2018-09-27T13:14:29.498Z,23.54
2018-09-27T13:15:29.472Z,23.46
2018-09-27T13:16:29.494Z,23.46
2018-09-27T13:17:29.451Z,23.38
2018-09-27T13:18:29.458Z,23.28
2018-09-27T13:19:29.560Z,23.31
2018-09-27T13:20:29.809Z,23.31
2018-09-27T13:21:29.579Z,23.38
2018-09-27T13:22:29.510Z,23.40
2018-09-27T13:23:29.710Z,23.33
2018-09-27T13:24:29.608Z,23.32
2018-09-27T13:25:29.560Z,23.33
2018-09-27T13:26:29.596Z,23.33
2018-09-27T13:27:29.498Z,23.22
2018-09-27T13:28:29.515Z,23.20
2018-09-27T13:29:29.533Z,23.22
2018-09-27T13:30:29.531Z,23.04